sensor_id;sensor_type;location;lat;lon;timestamp;P1;durP1;ratioP1;P2;durP2;ratioP2
34836;SDS011;21053;50.848;4.652;2023-04-25T00:02:52;18.95;;;5.55;;
34836;SDS011;21053;50.848;4.652;2023-04-25T00:05:25;16.25;;;5.40;;
34836;SDS011;21053;50.848;4.652;2023-04-25T00:07:51;33.10;;;7.10;;
34836;SDS011;21053;50.848;4.652;2023-04-25T00:10:19;24.52;;;5.38;;
34836;SDS011;21053;50.848;4.652;2023-04-25T00:12:48;27.10;;;5.40;;
34836;SDS011;21053;50.848;4.652;2023-04-25T00:15:16;34.33;;;6.22;;
34836;SDS011;21053;50.848;4.652;2023-04-25T00:17:47;25.00;;;5.70;;
34836;SDS011;21053;50.848;4.652;2023-04-25T00:20:16;23.17;;;5.70;;
34836;SDS011;21053;50.848;4.652;2023-04-25T00:25:10;28.70;;;5.70;;
34836;SDS011;21053;50.848;4.652;2023-04-25T00:30:09;23.90;;;5.88;;
34836;SDS011;21053;50.848;4.652;2023-04-25T00:32:38;17.60;;;5.75;;
34836;SDS011;21053;50.848;4.652;2023-04-25T00:35:06;21.45;;;5.80;;
34836;SDS011;21053;50.848;4.652;2023-04-25T00:37:34;22.33;;;5.65;;
34836;SDS011;21053;50.848;4.652;2023-04-25T00:40:00;18.17;;;5.50;;
34836;SDS011;21053;50.848;4.652;2023-04-25T00:44:58;19.00;;;5.32;;
34836;SDS011;21053;50.848;4.652;2023-04-25T00:47:27;16.98;;;5.13;;
34836;SDS011;21053;50.848;4.652;2023-04-25T00:49:54;25.38;;;5.70;;
34836;SDS011;21053;50.848;4.652;2023-04-25T00:52:21;22.38;;;5.53;;
34836;SDS011;21053;50.848;4.652;2023-04-25T00:57:19;22.75;;;5.68;;
34836;SDS011;21053;50.848;4.652;2023-04-25T00:59:46;27.45;;;5.80;;
34836;SDS011;21053;50.848;4.652;2023-04-25T01:02:15;24.33;;;5.20;;
34836;SDS011;21053;50.848;4.652;2023-04-25T01:04:42;29.77;;;5.90;;
34836;SDS011;21053;50.848;4.652;2023-04-25T01:07:08;24.98;;;5.88;;
34836;SDS011;21053;50.848;4.652;2023-04-25T01:09:38;25.20;;;5.30;;
34836;SDS011;21053;50.848;4.652;2023-04-25T01:12:05;20.88;;;5.50;;
34836;SDS011;21053;50.848;4.652;2023-04-25T01:14:37;25.17;;;5.78;;
34836;SDS011;21053;50.848;4.652;2023-04-25T01:17:05;20.15;;;5.63;;
34836;SDS011;21053;50.848;4.652;2023-04-25T01:19:38;31.40;;;6.18;;
34836;SDS011;21053;50.848;4.652;2023-04-25T01:22:10;21.63;;;5.88;;
34836;SDS011;21053;50.848;4.652;2023-04-25T01:24:36;22.02;;;5.90;;
34836;SDS011;21053;50.848;4.652;2023-04-25T01:27:04;23.88;;;6.00;;
34836;SDS011;21053;50.848;4.652;2023-04-25T01:29:31;30.17;;;5.53;;
34836;SDS011;21053;50.848;4.652;2023-04-25T01:31:59;23.10;;;5.60;;
34836;SDS011;21053;50.848;4.652;2023-04-25T01:34:27;26.27;;;6.05;;
34836;SDS011;21053;50.848;4.652;2023-04-25T01:36:56;24.95;;;5.93;;
34836;SDS011;21053;50.848;4.652;2023-04-25T01:39:24;24.52;;;6.10;;
34836;SDS011;21053;50.848;4.652;2023-04-25T01:41:51;30.85;;;5.90;;
34836;SDS011;21053;50.848;4.652;2023-04-25T01:44:23;21.90;;;5.80;;
34836;SDS011;21053;50.848;4.652;2023-04-25T01:46:51;25.50;;;5.65;;
34836;SDS011;21053;50.848;4.652;2023-04-25T01:49:17;26.65;;;6.18;;
34836;SDS011;21053;50.848;4.652;2023-04-25T01:51:46;22.83;;;5.82;;
34836;SDS011;21053;50.848;4.652;2023-04-25T01:54:14;22.00;;;6.05;;
34836;SDS011;21053;50.848;4.652;2023-04-25T01:59:16;22.67;;;6.65;;
34836;SDS011;21053;50.848;4.652;2023-04-25T02:01:41;29.95;;;6.13;;
34836;SDS011;21053;50.848;4.652;2023-04-25T02:04:07;20.40;;;5.13;;
34836;SDS011;21053;50.848;4.652;2023-04-25T02:06:33;22.10;;;5.80;;
34836;SDS011;21053;50.848;4.652;2023-04-25T02:08:59;31.40;;;6.25;;
34836;SDS011;21053;50.848;4.652;2023-04-25T02:11:27;24.48;;;6.18;;
34836;SDS011;21053;50.848;4.652;2023-04-25T02:16:24;22.13;;;5.90;;
34836;SDS011;21053;50.848;4.652;2023-04-25T02:21:20;18.02;;;5.65;;
34836;SDS011;21053;50.848;4.652;2023-04-25T02:26:20;26.55;;;7.07;;
34836;SDS011;21053;50.848;4.652;2023-04-25T02:28:48;19.70;;;6.82;;
34836;SDS011;21053;50.848;4.652;2023-04-25T02:31:14;34.95;;;6.35;;
34836;SDS011;21053;50.848;4.652;2023-04-25T02:33:40;24.10;;;6.65;;
34836;SDS011;21053;50.848;4.652;2023-04-25T02:36:07;24.70;;;6.38;;
34836;SDS011;21053;50.848;4.652;2023-04-25T02:38:36;27.27;;;5.68;;
34836;SDS011;21053;50.848;4.652;2023-04-25T02:41:02;19.52;;;5.70;;
34836;SDS011;21053;50.848;4.652;2023-04-25T02:43:30;35.00;;;6.72;;
34836;SDS011;21053;50.848;4.652;2023-04-25T02:46:01;22.75;;;6.10;;
34836;SDS011;21053;50.848;4.652;2023-04-25T02:48:30;29.67;;;7.00;;
34836;SDS011;21053;50.848;4.652;2023-04-25T02:53:26;23.65;;;6.07;;
34836;SDS011;21053;50.848;4.652;2023-04-25T02:55:51;29.67;;;6.40;;
34836;SDS011;21053;50.848;4.652;2023-04-25T02:58:18;24.90;;;5.97;;
34836;SDS011;21053;50.848;4.652;2023-04-25T03:00:47;24.23;;;6.68;;
34836;SDS011;21053;50.848;4.652;2023-04-25T03:03:13;19.70;;;6.80;;
34836;SDS011;21053;50.848;4.652;2023-04-25T03:05:39;31.70;;;6.18;;
34836;SDS011;21053;50.848;4.652;2023-04-25T03:10:34;28.83;;;6.30;;
34836;SDS011;21053;50.848;4.652;2023-04-25T03:15:28;19.48;;;6.35;;
34836;SDS011;21053;50.848;4.652;2023-04-25T03:17:54;31.92;;;7.75;;
34836;SDS011;21053;50.848;4.652;2023-04-25T03:20:20;30.85;;;6.70;;
34836;SDS011;21053;50.848;4.652;2023-04-25T03:22:46;24.73;;;6.38;;
34836;SDS011;21053;50.848;4.652;2023-04-25T03:25:11;28.08;;;7.38;;
34836;SDS011;21053;50.848;4.652;2023-04-25T03:27:37;23.13;;;6.70;;
34836;SDS011;21053;50.848;4.652;2023-04-25T03:30:04;19.60;;;6.25;;
34836;SDS011;21053;50.848;4.652;2023-04-25T03:32:31;26.80;;;6.88;;
34836;SDS011;21053;50.848;4.652;2023-04-25T03:34:57;26.33;;;7.00;;
34836;SDS011;21053;50.848;4.652;2023-04-25T03:37:24;29.55;;;6.53;;
34836;SDS011;21053;50.848;4.652;2023-04-25T03:39:50;35.38;;;6.35;;
34836;SDS011;21053;50.848;4.652;2023-04-25T03:42:17;31.73;;;6.50;;
34836;SDS011;21053;50.848;4.652;2023-04-25T03:44:43;29.98;;;6.07;;
34836;SDS011;21053;50.848;4.652;2023-04-25T03:47:24;24.58;;;5.57;;
34836;SDS011;21053;50.848;4.652;2023-04-25T03:49:55;29.23;;;6.22;;
34836;SDS011;21053;50.848;4.652;2023-04-25T03:52:21;35.80;;;6.50;;
34836;SDS011;21053;50.848;4.652;2023-04-25T03:54:46;19.45;;;5.20;;
34836;SDS011;21053;50.848;4.652;2023-04-25T03:57:15;27.17;;;5.93;;
34836;SDS011;21053;50.848;4.652;2023-04-25T03:59:43;30.13;;;5.00;;
34836;SDS011;21053;50.848;4.652;2023-04-25T04:02:12;28.95;;;5.35;;
34836;SDS011;21053;50.848;4.652;2023-04-25T04:07:11;24.67;;;4.57;;
34836;SDS011;21053;50.848;4.652;2023-04-25T04:09:40;29.98;;;5.45;;
34836;SDS011;21053;50.848;4.652;2023-04-25T04:12:05;28.58;;;5.45;;
34836;SDS011;21053;50.848;4.652;2023-04-25T04:14:32;22.45;;;5.03;;
34836;SDS011;21053;50.848;4.652;2023-04-25T04:16:58;18.63;;;4.35;;
34836;SDS011;21053;50.848;4.652;2023-04-25T04:19:23;23.65;;;4.50;;
34836;SDS011;21053;50.848;4.652;2023-04-25T04:21:50;24.42;;;3.88;;
34836;SDS011;21053;50.848;4.652;2023-04-25T04:24:16;27.77;;;4.63;;
34836;SDS011;21053;50.848;4.652;2023-04-25T04:29:14;27.38;;;5.10;;
34836;SDS011;21053;50.848;4.652;2023-04-25T04:31:49;29.10;;;5.75;;
34836;SDS011;21053;50.848;4.652;2023-04-25T04:37:50;29.25;;;5.32;;
34836;SDS011;21053;50.848;4.652;2023-04-25T04:40:18;16.50;;;4.80;;
34836;SDS011;21053;50.848;4.652;2023-04-25T04:42:44;12.93;;;4.25;;
34836;SDS011;21053;50.848;4.652;2023-04-25T04:47:47;18.35;;;4.53;;
34836;SDS011;21053;50.848;4.652;2023-04-25T04:50:16;20.00;;;4.53;;
34836;SDS011;21053;50.848;4.652;2023-04-25T04:52:45;16.48;;;4.18;;
34836;SDS011;21053;50.848;4.652;2023-04-25T04:55:11;19.17;;;4.40;;
34836;SDS011;21053;50.848;4.652;2023-04-25T04:57:39;23.83;;;4.70;;
34836;SDS011;21053;50.848;4.652;2023-04-25T05:00:05;18.50;;;4.65;;
34836;SDS011;21053;50.848;4.652;2023-04-25T05:02:36;21.13;;;4.82;;
34836;SDS011;21053;50.848;4.652;2023-04-25T05:05:05;15.55;;;4.97;;
34836;SDS011;21053;50.848;4.652;2023-04-25T05:07:34;20.73;;;5.20;;
34836;SDS011;21053;50.848;4.652;2023-04-25T05:12:29;36.83;;;4.95;;
34836;SDS011;21053;50.848;4.652;2023-04-25T05:17:26;13.65;;;3.90;;
34836;SDS011;21053;50.848;4.652;2023-04-25T05:19:52;18.80;;;5.13;;
34836;SDS011;21053;50.848;4.652;2023-04-25T05:22:21;25.67;;;5.10;;
34836;SDS011;21053;50.848;4.652;2023-04-25T05:27:19;21.30;;;6.20;;
34836;SDS011;21053;50.848;4.652;2023-04-25T05:29:51;20.00;;;5.45;;
34836;SDS011;21053;50.848;4.652;2023-04-25T05:32:20;22.58;;;6.68;;
34836;SDS011;21053;50.848;4.652;2023-04-25T05:34:46;25.27;;;4.97;;
34836;SDS011;21053;50.848;4.652;2023-04-25T05:37:14;15.85;;;4.53;;
34836;SDS011;21053;50.848;4.652;2023-04-25T05:42:08;31.00;;;5.30;;
34836;SDS011;21053;50.848;4.652;2023-04-25T05:47:06;22.42;;;5.20;;
34836;SDS011;21053;50.848;4.652;2023-04-25T05:56:59;26.48;;;5.82;;
34836;SDS011;21053;50.848;4.652;2023-04-25T05:59:25;29.10;;;5.70;;
34836;SDS011;21053;50.848;4.652;2023-04-25T06:01:53;33.33;;;5.88;;
34836;SDS011;21053;50.848;4.652;2023-04-25T06:04:21;26.77;;;5.60;;
34836;SDS011;21053;50.848;4.652;2023-04-25T06:06:49;28.58;;;5.07;;
34836;SDS011;21053;50.848;4.652;2023-04-25T06:09:18;18.17;;;5.30;;
34836;SDS011;21053;50.848;4.652;2023-04-25T06:11:47;20.20;;;5.50;;
34836;SDS011;21053;50.848;4.652;2023-04-25T06:14:16;23.45;;;5.50;;
34836;SDS011;21053;50.848;4.652;2023-04-25T06:16:44;27.30;;;5.38;;
34836;SDS011;21053;50.848;4.652;2023-04-25T06:21:39;26.30;;;5.43;;
34836;SDS011;21053;50.848;4.652;2023-04-25T06:24:06;34.55;;;6.72;;
34836;SDS011;21053;50.848;4.652;2023-04-25T06:26:31;17.83;;;5.22;;
34836;SDS011;21053;50.848;4.652;2023-04-25T06:29:00;31.98;;;6.30;;
34836;SDS011;21053;50.848;4.652;2023-04-25T06:34:03;30.23;;;5.63;;
34836;SDS011;21053;50.848;4.652;2023-04-25T06:36:30;33.58;;;6.30;;
34836;SDS011;21053;50.848;4.652;2023-04-25T06:38:55;29.38;;;5.82;;
34836;SDS011;21053;50.848;4.652;2023-04-25T06:41:23;20.02;;;6.03;;
34836;SDS011;21053;50.848;4.652;2023-04-25T06:43:48;29.30;;;5.22;;
34836;SDS011;21053;50.848;4.652;2023-04-25T06:46:14;25.50;;;4.88;;
34836;SDS011;21053;50.848;4.652;2023-04-25T06:51:11;21.75;;;6.10;;
34836;SDS011;21053;50.848;4.652;2023-04-25T06:53:38;23.10;;;5.43;;
34836;SDS011;21053;50.848;4.652;2023-04-25T06:56:07;28.67;;;5.70;;
34836;SDS011;21053;50.848;4.652;2023-04-25T07:01:05;29.27;;;5.70;;
34836;SDS011;21053;50.848;4.652;2023-04-25T07:06:02;32.30;;;6.60;;
34836;SDS011;21053;50.848;4.652;2023-04-25T07:08:29;44.40;;;15.52;;
34836;SDS011;21053;50.848;4.652;2023-04-25T07:10:55;20.05;;;4.97;;
34836;SDS011;21053;50.848;4.652;2023-04-25T07:13:21;19.15;;;5.63;;
34836;SDS011;21053;50.848;4.652;2023-04-25T07:15:48;24.08;;;5.53;;
34836;SDS011;21053;50.848;4.652;2023-04-25T07:18:13;26.98;;;5.40;;
34836;SDS011;21053;50.848;4.652;2023-04-25T07:20:42;27.55;;;5.22;;
34836;SDS011;21053;50.848;4.652;2023-04-25T07:23:08;27.58;;;5.68;;
34836;SDS011;21053;50.848;4.652;2023-04-25T07:25:35;21.42;;;4.97;;
34836;SDS011;21053;50.848;4.652;2023-04-25T07:30:32;28.65;;;5.15;;
34836;SDS011;21053;50.848;4.652;2023-04-25T07:33:05;29.42;;;5.35;;
34836;SDS011;21053;50.848;4.652;2023-04-25T07:35:31;32.65;;;11.88;;
34836;SDS011;21053;50.848;4.652;2023-04-25T07:38:01;29.98;;;6.40;;
34836;SDS011;21053;50.848;4.652;2023-04-25T07:40:28;32.08;;;6.10;;
34836;SDS011;21053;50.848;4.652;2023-04-25T07:42:54;26.05;;;5.32;;
34836;SDS011;21053;50.848;4.652;2023-04-25T07:45:22;26.73;;;5.90;;
34836;SDS011;21053;50.848;4.652;2023-04-25T07:47:50;27.45;;;5.28;;
34836;SDS011;21053;50.848;4.652;2023-04-25T07:50:19;32.60;;;6.05;;
34836;SDS011;21053;50.848;4.652;2023-04-25T07:52:46;19.63;;;5.10;;
34836;SDS011;21053;50.848;4.652;2023-04-25T07:55:14;29.55;;;6.30;;
34836;SDS011;21053;50.848;4.652;2023-04-25T07:57:47;35.63;;;5.47;;
34836;SDS011;21053;50.848;4.652;2023-04-25T08:00:19;20.75;;;6.22;;
34836;SDS011;21053;50.848;4.652;2023-04-25T08:02:48;16.42;;;4.55;;
34836;SDS011;21053;50.848;4.652;2023-04-25T08:05:13;31.42;;;6.63;;
34836;SDS011;21053;50.848;4.652;2023-04-25T08:07:42;61.30;;;9.55;;
34836;SDS011;21053;50.848;4.652;2023-04-25T08:10:14;25.92;;;5.07;;
34836;SDS011;21053;50.848;4.652;2023-04-25T08:12:42;22.05;;;5.40;;
34836;SDS011;21053;50.848;4.652;2023-04-25T08:15:14;21.23;;;4.80;;
34836;SDS011;21053;50.848;4.652;2023-04-25T08:17:40;24.33;;;5.47;;
34836;SDS011;21053;50.848;4.652;2023-04-25T08:25:06;25.75;;;5.28;;
34836;SDS011;21053;50.848;4.652;2023-04-25T08:27:35;27.98;;;5.68;;
34836;SDS011;21053;50.848;4.652;2023-04-25T08:30:02;23.80;;;4.90;;
34836;SDS011;21053;50.848;4.652;2023-04-25T08:32:31;29.25;;;4.80;;
34836;SDS011;21053;50.848;4.652;2023-04-25T08:37:28;28.30;;;6.10;;
34836;SDS011;21053;50.848;4.652;2023-04-25T08:39:57;34.60;;;5.30;;
34836;SDS011;21053;50.848;4.652;2023-04-25T08:42:23;18.95;;;4.28;;
34836;SDS011;21053;50.848;4.652;2023-04-25T08:44:54;16.63;;;3.85;;
34836;SDS011;21053;50.848;4.652;2023-04-25T08:47:24;18.20;;;4.07;;
34836;SDS011;21053;50.848;4.652;2023-04-25T08:49:54;15.50;;;3.10;;
34836;SDS011;21053;50.848;4.652;2023-04-25T08:52:30;21.48;;;3.83;;
34836;SDS011;21053;50.848;4.652;2023-04-25T08:55:04;12.77;;;3.05;;
34836;SDS011;21053;50.848;4.652;2023-04-25T09:00:06;15.20;;;3.00;;
34836;SDS011;21053;50.848;4.652;2023-04-25T09:02:36;18.20;;;3.20;;
34836;SDS011;21053;50.848;4.652;2023-04-25T09:05:05;20.85;;;3.70;;
34836;SDS011;21053;50.848;4.652;2023-04-25T09:07:32;19.63;;;3.53;;
34836;SDS011;21053;50.848;4.652;2023-04-25T09:10:00;20.45;;;4.65;;
34836;SDS011;21053;50.848;4.652;2023-04-25T09:12:31;21.98;;;3.25;;
34836;SDS011;21053;50.848;4.652;2023-04-25T09:15:05;12.80;;;2.83;;
34836;SDS011;21053;50.848;4.652;2023-04-25T09:17:35;13.82;;;2.75;;
34836;SDS011;21053;50.848;4.652;2023-04-25T09:25:10;11.68;;;2.92;;
34836;SDS011;21053;50.848;4.652;2023-04-25T09:27:49;19.42;;;3.53;;
34836;SDS011;21053;50.848;4.652;2023-04-25T09:30:17;12.52;;;3.03;;
34836;SDS011;21053;50.848;4.652;2023-04-25T09:32:48;17.80;;;2.78;;
34836;SDS011;21053;50.848;4.652;2023-04-25T09:40:22;18.85;;;3.22;;
34836;SDS011;21053;50.848;4.652;2023-04-25T09:42:49;16.15;;;3.28;;
34836;SDS011;21053;50.848;4.652;2023-04-25T09:45:18;11.35;;;2.25;;
34836;SDS011;21053;50.848;4.652;2023-04-25T09:47:45;13.70;;;2.80;;
34836;SDS011;21053;50.848;4.652;2023-04-25T09:50:17;14.85;;;2.83;;
34836;SDS011;21053;50.848;4.652;2023-04-25T09:53:02;22.08;;;3.13;;
34836;SDS011;21053;50.848;4.652;2023-04-25T09:55:35;11.20;;;3.05;;
34836;SDS011;21053;50.848;4.652;2023-04-25T09:58:04;20.60;;;3.08;;
34836;SDS011;21053;50.848;4.652;2023-04-25T10:00:34;14.07;;;3.30;;
34836;SDS011;21053;50.848;4.652;2023-04-25T10:03:03;18.50;;;2.90;;
34836;SDS011;21053;50.848;4.652;2023-04-25T10:05:32;16.67;;;3.08;;
34836;SDS011;21053;50.848;4.652;2023-04-25T10:08:03;19.42;;;3.00;;
34836;SDS011;21053;50.848;4.652;2023-04-25T10:10:30;17.38;;;3.03;;
34836;SDS011;21053;50.848;4.652;2023-04-25T10:13:02;10.10;;;2.78;;
34836;SDS011;21053;50.848;4.652;2023-04-25T10:15:32;9.05;;;2.50;;
34836;SDS011;21053;50.848;4.652;2023-04-25T10:18:02;7.40;;;2.47;;
34836;SDS011;21053;50.848;4.652;2023-04-25T10:20:29;8.32;;;2.17;;
34836;SDS011;21053;50.848;4.652;2023-04-25T10:25:31;16.95;;;2.33;;
34836;SDS011;21053;50.848;4.652;2023-04-25T10:28:02;10.25;;;2.10;;
34836;SDS011;21053;50.848;4.652;2023-04-25T10:30:30;5.65;;;1.70;;
34836;SDS011;21053;50.848;4.652;2023-04-25T10:32:58;10.07;;;2.13;;
34836;SDS011;21053;50.848;4.652;2023-04-25T10:35:29;6.20;;;1.92;;
34836;SDS011;21053;50.848;4.652;2023-04-25T10:40:31;12.07;;;2.20;;
34836;SDS011;21053;50.848;4.652;2023-04-25T10:46:14;9.63;;;2.80;;
34836;SDS011;21053;50.848;4.652;2023-04-25T10:48:58;9.77;;;1.80;;
34836;SDS011;21053;50.848;4.652;2023-04-25T10:51:27;8.90;;;1.85;;
34836;SDS011;21053;50.848;4.652;2023-04-25T10:54:03;5.75;;;1.65;;
34836;SDS011;21053;50.848;4.652;2023-04-25T10:56:31;7.85;;;1.75;;
34836;SDS011;21053;50.848;4.652;2023-04-25T10:59:16;6.05;;;1.58;;
34836;SDS011;21053;50.848;4.652;2023-04-25T11:01:52;14.18;;;2.13;;
34836;SDS011;21053;50.848;4.652;2023-04-25T11:04:23;9.65;;;2.20;;
34836;SDS011;21053;50.848;4.652;2023-04-25T11:09:51;6.38;;;1.80;;
34836;SDS011;21053;50.848;4.652;2023-04-25T11:12:18;11.98;;;2.00;;
34836;SDS011;21053;50.848;4.652;2023-04-25T11:14:44;8.25;;;2.50;;
34836;SDS011;21053;50.848;4.652;2023-04-25T11:17:10;13.77;;;3.08;;
34836;SDS011;21053;50.848;4.652;2023-04-25T11:19:36;6.75;;;1.80;;
34836;SDS011;21053;50.848;4.652;2023-04-25T11:22:09;9.02;;;2.45;;
34836;SDS011;21053;50.848;4.652;2023-04-25T11:24:39;10.07;;;2.28;;
34836;SDS011;21053;50.848;4.652;2023-04-25T11:27:08;4.55;;;1.88;;
34836;SDS011;21053;50.848;4.652;2023-04-25T11:29:35;9.20;;;2.20;;
34836;SDS011;21053;50.848;4.652;2023-04-25T11:32:04;9.75;;;3.70;;
34836;SDS011;21053;50.848;4.652;2023-04-25T11:34:31;8.88;;;3.20;;
34836;SDS011;21053;50.848;4.652;2023-04-25T11:37:00;7.43;;;2.30;;
34836;SDS011;21053;50.848;4.652;2023-04-25T11:39:30;7.15;;;2.28;;
34836;SDS011;21053;50.848;4.652;2023-04-25T11:41:56;10.75;;;2.78;;
34836;SDS011;21053;50.848;4.652;2023-04-25T11:44:23;10.95;;;2.88;;
34836;SDS011;21053;50.848;4.652;2023-04-25T11:46:49;11.48;;;2.72;;
34836;SDS011;21053;50.848;4.652;2023-04-25T11:49:15;17.00;;;4.30;;
34836;SDS011;21053;50.848;4.652;2023-04-25T11:51:44;9.85;;;3.88;;
34836;SDS011;21053;50.848;4.652;2023-04-25T11:54:14;10.73;;;3.17;;
34836;SDS011;21053;50.848;4.652;2023-04-25T11:56:45;10.32;;;2.75;;
34836;SDS011;21053;50.848;4.652;2023-04-25T11:59:11;14.55;;;2.65;;
34836;SDS011;21053;50.848;4.652;2023-04-25T12:04:13;10.98;;;2.50;;
34836;SDS011;21053;50.848;4.652;2023-04-25T12:06:40;13.27;;;2.88;;
34836;SDS011;21053;50.848;4.652;2023-04-25T12:09:07;14.77;;;3.05;;
34836;SDS011;21053;50.848;4.652;2023-04-25T12:14:12;13.45;;;2.70;;
34836;SDS011;21053;50.848;4.652;2023-04-25T12:16:56;12.07;;;2.50;;
34836;SDS011;21053;50.848;4.652;2023-04-25T12:22:49;6.35;;;1.90;;
34836;SDS011;21053;50.848;4.652;2023-04-25T12:28:17;7.18;;;1.88;;
34836;SDS011;21053;50.848;4.652;2023-04-25T12:33:36;7.68;;;1.70;;
34836;SDS011;21053;50.848;4.652;2023-04-25T12:36:06;11.20;;;2.00;;
34836;SDS011;21053;50.848;4.652;2023-04-25T12:38:41;8.38;;;2.13;;
34836;SDS011;21053;50.848;4.652;2023-04-25T12:41:08;10.13;;;1.98;;
34836;SDS011;21053;50.848;4.652;2023-04-25T12:43:34;12.73;;;1.77;;
34836;SDS011;21053;50.848;4.652;2023-04-25T12:46:01;7.88;;;1.63;;
34836;SDS011;21053;50.848;4.652;2023-04-25T12:48:29;8.45;;;1.40;;
34836;SDS011;21053;50.848;4.652;2023-04-25T12:50:55;5.15;;;1.42;;
34836;SDS011;21053;50.848;4.652;2023-04-25T12:53:24;5.50;;;1.60;;
34836;SDS011;21053;50.848;4.652;2023-04-25T12:55:50;5.57;;;1.50;;
34836;SDS011;21053;50.848;4.652;2023-04-25T12:58:17;12.73;;;3.50;;
34836;SDS011;21053;50.848;4.652;2023-04-25T13:00:46;3.83;;;1.33;;
34836;SDS011;21053;50.848;4.652;2023-04-25T13:03:11;8.15;;;2.25;;
34836;SDS011;21053;50.848;4.652;2023-04-25T13:05:40;9.13;;;2.00;;
34836;SDS011;21053;50.848;4.652;2023-04-25T13:08:07;4.00;;;1.38;;
34836;SDS011;21053;50.848;4.652;2023-04-25T13:10:33;3.72;;;1.50;;
34836;SDS011;21053;50.848;4.652;2023-04-25T13:12:59;3.10;;;1.55;;
34836;SDS011;21053;50.848;4.652;2023-04-25T13:15:26;4.63;;;1.58;;
34836;SDS011;21053;50.848;4.652;2023-04-25T13:17:52;6.45;;;1.58;;
34836;SDS011;21053;50.848;4.652;2023-04-25T13:20:17;7.85;;;1.70;;
34836;SDS011;21053;50.848;4.652;2023-04-25T13:22:47;7.97;;;1.60;;
34836;SDS011;21053;50.848;4.652;2023-04-25T13:25:13;7.78;;;1.63;;
34836;SDS011;21053;50.848;4.652;2023-04-25T13:27:39;11.98;;;1.90;;
34836;SDS011;21053;50.848;4.652;2023-04-25T13:32:35;9.38;;;2.00;;
34836;SDS011;21053;50.848;4.652;2023-04-25T13:35:03;16.83;;;2.40;;
34836;SDS011;21053;50.848;4.652;2023-04-25T13:37:31;5.28;;;1.77;;
34836;SDS011;21053;50.848;4.652;2023-04-25T13:40:02;14.10;;;2.33;;
34836;SDS011;21053;50.848;4.652;2023-04-25T13:42:30;4.10;;;1.52;;
34836;SDS011;21053;50.848;4.652;2023-04-25T13:44:56;7.95;;;2.08;;
34836;SDS011;21053;50.848;4.652;2023-04-25T13:47:23;13.50;;;1.77;;
34836;SDS011;21053;50.848;4.652;2023-04-25T13:49:49;6.57;;;1.27;;
34836;SDS011;21053;50.848;4.652;2023-04-25T13:52:15;9.98;;;1.50;;
34836;SDS011;21053;50.848;4.652;2023-04-25T13:57:11;5.45;;;1.30;;
34836;SDS011;21053;50.848;4.652;2023-04-25T13:59:42;7.70;;;1.58;;
34836;SDS011;21053;50.848;4.652;2023-04-25T14:02:11;6.93;;;1.50;;
34836;SDS011;21053;50.848;4.652;2023-04-25T14:04:37;7.05;;;1.65;;
34836;SDS011;21053;50.848;4.652;2023-04-25T14:07:05;10.32;;;1.58;;
34836;SDS011;21053;50.848;4.652;2023-04-25T14:09:31;7.85;;;1.50;;
34836;SDS011;21053;50.848;4.652;2023-04-25T14:12:00;13.65;;;1.92;;
34836;SDS011;21053;50.848;4.652;2023-04-25T14:14:27;10.75;;;1.48;;
34836;SDS011;21053;50.848;4.652;2023-04-25T14:16:55;4.35;;;1.52;;
34836;SDS011;21053;50.848;4.652;2023-04-25T14:19:24;6.95;;;1.52;;
34836;SDS011;21053;50.848;4.652;2023-04-25T14:21:51;6.47;;;1.70;;
34836;SDS011;21053;50.848;4.652;2023-04-25T14:26:48;9.98;;;1.88;;
34836;SDS011;21053;50.848;4.652;2023-04-25T14:29:15;11.80;;;2.10;;
34836;SDS011;21053;50.848;4.652;2023-04-25T14:31:44;9.55;;;2.00;;
34836;SDS011;21053;50.848;4.652;2023-04-25T14:34:10;11.18;;;2.42;;
34836;SDS011;21053;50.848;4.652;2023-04-25T14:36:36;8.38;;;1.70;;
34836;SDS011;21053;50.848;4.652;2023-04-25T14:39:04;10.80;;;1.95;;
34836;SDS011;21053;50.848;4.652;2023-04-25T14:41:32;10.32;;;1.60;;
34836;SDS011;21053;50.848;4.652;2023-04-25T14:43:57;8.77;;;1.90;;
34836;SDS011;21053;50.848;4.652;2023-04-25T14:46:24;17.23;;;1.85;;
34836;SDS011;21053;50.848;4.652;2023-04-25T14:51:21;7.40;;;1.45;;
34836;SDS011;21053;50.848;4.652;2023-04-25T14:53:47;9.00;;;1.52;;
34836;SDS011;21053;50.848;4.652;2023-04-25T14:56:16;7.72;;;2.33;;
34836;SDS011;21053;50.848;4.652;2023-04-25T14:58:45;8.23;;;1.83;;
34836;SDS011;21053;50.848;4.652;2023-04-25T15:01:14;8.35;;;2.00;;
34836;SDS011;21053;50.848;4.652;2023-04-25T15:06:11;5.10;;;1.95;;
34836;SDS011;21053;50.848;4.652;2023-04-25T15:11:22;6.35;;;1.40;;
34836;SDS011;21053;50.848;4.652;2023-04-25T15:13:48;10.85;;;2.10;;
34836;SDS011;21053;50.848;4.652;2023-04-25T15:16:16;11.68;;;1.67;;
34836;SDS011;21053;50.848;4.652;2023-04-25T15:21:11;16.17;;;2.15;;
34836;SDS011;21053;50.848;4.652;2023-04-25T15:23:40;7.88;;;1.40;;
34836;SDS011;21053;50.848;4.652;2023-04-25T15:26:08;9.32;;;1.80;;
34836;SDS011;21053;50.848;4.652;2023-04-25T15:28:33;7.32;;;2.00;;
34836;SDS011;21053;50.848;4.652;2023-04-25T15:33:31;10.60;;;1.70;;
34836;SDS011;21053;50.848;4.652;2023-04-25T15:35:57;5.63;;;1.50;;
34836;SDS011;21053;50.848;4.652;2023-04-25T15:38:25;13.82;;;2.60;;
34836;SDS011;21053;50.848;4.652;2023-04-25T15:40:55;9.55;;;1.42;;
34836;SDS011;21053;50.848;4.652;2023-04-25T15:43:21;9.77;;;1.98;;
34836;SDS011;21053;50.848;4.652;2023-04-25T15:45:46;5.97;;;2.25;;
34836;SDS011;21053;50.848;4.652;2023-04-25T15:50:45;12.98;;;4.43;;
34836;SDS011;21053;50.848;4.652;2023-04-25T15:53:25;11.05;;;2.40;;
34836;SDS011;21053;50.848;4.652;2023-04-25T15:55:52;6.75;;;1.73;;
34836;SDS011;21053;50.848;4.652;2023-04-25T15:58:19;7.10;;;1.98;;
34836;SDS011;21053;50.848;4.652;2023-04-25T16:00:45;9.52;;;2.15;;
34836;SDS011;21053;50.848;4.652;2023-04-25T16:03:14;13.60;;;2.60;;
34836;SDS011;21053;50.848;4.652;2023-04-25T16:13:09;10.82;;;1.70;;
34836;SDS011;21053;50.848;4.652;2023-04-25T16:15:38;7.88;;;2.03;;
34836;SDS011;21053;50.848;4.652;2023-04-25T16:18:04;6.57;;;1.90;;
34836;SDS011;21053;50.848;4.652;2023-04-25T16:20:36;7.28;;;1.55;;
34836;SDS011;21053;50.848;4.652;2023-04-25T16:25:34;7.28;;;1.52;;
34836;SDS011;21053;50.848;4.652;2023-04-25T16:30:28;5.88;;;1.38;;
34836;SDS011;21053;50.848;4.652;2023-04-25T16:32:55;7.15;;;1.73;;
34836;SDS011;21053;50.848;4.652;2023-04-25T16:37:52;14.93;;;1.77;;
34836;SDS011;21053;50.848;4.652;2023-04-25T16:42:47;7.70;;;1.63;;
34836;SDS011;21053;50.848;4.652;2023-04-25T16:47:46;6.93;;;1.60;;
34836;SDS011;21053;50.848;4.652;2023-04-25T16:50:17;5.05;;;1.60;;
34836;SDS011;21053;50.848;4.652;2023-04-25T16:52:44;3.63;;;1.42;;
34836;SDS011;21053;50.848;4.652;2023-04-25T16:57:39;4.60;;;1.60;;
34836;SDS011;21053;50.848;4.652;2023-04-25T17:00:06;8.90;;;1.80;;
34836;SDS011;21053;50.848;4.652;2023-04-25T17:02:47;10.50;;;1.45;;
34836;SDS011;21053;50.848;4.652;2023-04-25T17:05:12;7.53;;;1.80;;
34836;SDS011;21053;50.848;4.652;2023-04-25T17:07:38;4.88;;;1.40;;
34836;SDS011;21053;50.848;4.652;2023-04-25T17:15:04;7.32;;;1.40;;
34836;SDS011;21053;50.848;4.652;2023-04-25T17:17:31;12.68;;;2.15;;
34836;SDS011;21053;50.848;4.652;2023-04-25T17:19:58;18.83;;;1.88;;
34836;SDS011;21053;50.848;4.652;2023-04-25T17:22:25;6.75;;;1.70;;
34836;SDS011;21053;50.848;4.652;2023-04-25T17:24:53;10.75;;;1.67;;
34836;SDS011;21053;50.848;4.652;2023-04-25T17:27:20;19.30;;;1.63;;
34836;SDS011;21053;50.848;4.652;2023-04-25T17:32:18;12.35;;;1.70;;
34836;SDS011;21053;50.848;4.652;2023-04-25T17:34:46;8.02;;;1.80;;
34836;SDS011;21053;50.848;4.652;2023-04-25T17:39:45;13.00;;;1.90;;